Check out our new BloomSky Weather System.

Active alerts

Houston, TX
  Details for Houston, TX Heat Advisory  +1 additional alert
Galveston, TX
  Details for Galveston, TX Air Quality Alert


Thunder radar  blitzortung!


Rain radar more information rain snow radar


Visit our other weather sites:

Template documentation
and downloads

And another site



Weather Underground History page Text

Daily Summary for March 26, 2017 Units:  Metric    English   Both
« Previous Day
Next Day »
Daily Weekly Monthly Yearly Custom
  High: Low: Average:
Temperature: -17.8 °C 14.2 °C 22.1 °C
Dew Point: -17.8 °C 12.6 °C 18 °C
Humidity: Humidity % 45 % 79 %
Wind Speed: 0 km/h 0 km/h 6.3 km/h
Wind Gust: 0 km/h - -
Wind:- - SSE
Pressure: 0 hPa 1009.4 hPa -
Precipitation: 0 mm    
Historical Graphs
 
 
Tabular Data for March 26, 2017
Time Temperature Dew Point Pressure Wind Wind Speed Wind Gust Humidity Rainfall Rate (Hourly)
-17.8 °C -17.8 °C 0 hPa Calm     Humidity % 0 mm
00:02 15.7 °C 13.7 °C 1013.1 hPa Calm   1.6 km/h 88 % 0 mm
00:07 15.6 °C 13.6 °C 1013.1 hPa Calm   1.6 km/h 88 % 0 mm
00:12 15.6 °C 13.6 °C 1012.8 hPa Calm   1.6 km/h 88 % 0 mm
00:17 15.4 °C 13.2 °C 1013.1 hPa Calm     87 % 0 mm
00:22 15.4 °C 13.4 °C 1013.1 hPa Calm     88 % 0 mm
00:27 15.3 °C 13.3 °C 1012.8 hPa Calm     88 % 0 mm
00:32 15.2 °C 13.2 °C 1013.1 hPa Calm     88 % 0 mm
00:37 15.1 °C 13.1 °C 1012.8 hPa Calm     88 % 0 mm
00:42 15 °C 13 °C 1012.8 hPa Calm     88 % 0 mm
00:47 15 °C 13.2 °C 1012.8 hPa Calm     89 % 0 mm
00:52 15 °C 13.2 °C 1012.8 hPa Calm     89 % 0 mm
00:57 14.8 °C 13 °C 1012.8 hPa Calm     89 % 0 mm
01:02 14.9 °C 13.3 °C 1012.8 hPa Calm   1.6 km/h 90 % 0 mm
01:07 14.9 °C 13.3 °C 1012.8 hPa Calm   1.6 km/h 90 % 0 mm
01:12 15 °C 13.4 °C 1012.8 hPa Calm   1.6 km/h 90 % 0 mm
01:17 14.9 °C 13.3 °C 1012.8 hPa Calm   1.6 km/h 90 % 0 mm
01:22 14.9 °C 13.3 °C 1012.8 hPa Calm     90 % 0 mm
01:27 14.9 °C 13.1 °C 1012.8 hPa Calm     89 % 0 mm
01:33 14.8 °C 13 °C 1012.8 hPa Calm     89 % 0 mm
01:38 14.7 °C 12.9 °C 1012.8 hPa Calm     89 % 0 mm
01:43 14.6 °C 13 °C 1012.8 hPa Calm     90 % 0 mm
01:48 14.5 °C 12.9 °C 1012.8 hPa Calm     90 % 0 mm
01:53 14.4 °C 12.8 °C 1012.8 hPa Calm     90 % 0 mm
01:58 14.2 °C 12.6 °C 1012.8 hPa Calm     90 % 0 mm
02:03 14.3 °C 12.9 °C 1012.8 hPa Calm     91 % 0 mm
02:08 14.4 °C 12.9 °C 1012.8 hPa Calm   1.6 km/h 91 % 0 mm
02:13 14.3 °C 12.7 °C 1012.8 hPa Calm   1.6 km/h 90 % 0 mm
02:18 14.2 °C 12.6 °C 1012.8 hPa Calm   1.6 km/h 90 % 0 mm
02:23 14.2 °C 12.8 °C 1013.1 hPa Calm     91 % 0 mm
02:28 14.2 °C 12.9 °C 1013.1 hPa Calm     92 % 0 mm
02:33 14.3 °C 13 °C 1012.8 hPa Calm     92 % 0 mm
02:38 14.4 °C 13.1 °C 1012.8 hPa Calm     92 % 0 mm
02:43 14.7 °C 13.4 °C 1012.8 hPa Calm     92 % 0 mm
02:48 14.8 °C 13.5 °C 1012.8 hPa Calm     92 % 0 mm
02:49 14.8 °C 13.5 °C 1012.8 hPa Calm     92 % 0 mm
02:54 15.1 °C 13.8 °C 1012.8 hPa Calm     92 % 0 mm
02:59 15.3 °C 14 °C 1012.8 hPa Calm     92 % 0 mm
03:04 15.6 °C 14.3 °C 1012.8 hPa Calm     92 % 0 mm
03:09 15.7 °C 14.4 °C 1012.8 hPa Calm     92 % 0 mm
03:14 15.9 °C 14.6 °C 1012.4 hPa Calm     92 % 0 mm
03:19 16.1 °C 14.8 °C 1012.4 hPa Calm     92 % 0 mm
03:24 16.3 °C 15 °C 1012.4 hPa Calm   1.6 km/h 92 % 0 mm
03:29 16.4 °C 15.1 °C 1012.4 hPa Calm   1.6 km/h 92 % 0 mm
03:34 16.6 °C 15.3 °C 1012.1 hPa Calm   1.6 km/h 92 % 0 mm
03:39 16.7 °C 15.4 °C 1012.1 hPa Calm     92 % 0 mm
03:44 16.8 °C 15.5 °C 1012.1 hPa Calm     92 % 0 mm
03:49 16.9 °C 15.6 °C 1012.1 hPa Calm     92 % 0 mm
03:54 17 °C 15.9 °C 1012.1 hPa Calm     93 % 0 mm
03:59 17.1 °C 16 °C 1012.1 hPa Calm     93 % 0 mm
04:04 17.2 °C 16.1 °C 1011.7 hPa Calm     93 % 0 mm
04:09 17.3 °C 16.2 °C 1011.7 hPa Calm     93 % 0 mm
04:14 17.3 °C 16.2 °C 1011.7 hPa Calm     93 % 0 mm
04:19 17.4 °C 16.3 °C 1011.7 hPa Calm     93 % 0 mm
04:25 17.6 °C 16.5 °C 1011.7 hPa Calm     93 % 0 mm
04:29 17.6 °C 16.5 °C 1011.7 hPa Calm     93 % 0 mm
04:35 17.6 °C 16.5 °C 1011.7 hPa Calm     93 % 0 mm
04:40 17.6 °C 16.5 °C 1011.7 hPa Calm     93 % 0 mm
04:45 17.6 °C 16.5 °C 1011.4 hPa Calm     93 % 0 mm
04:50 17.5 °C 16.4 °C 1011.4 hPa Calm     93 % 0 mm
04:55 17.4 °C 16.3 °C 1011.7 hPa Calm     93 % 0 mm
05:00 17.3 °C 16.2 °C 1011.7 hPa Calm     93 % 0 mm
05:05 17.3 °C 16.2 °C 1011.4 hPa Calm     93 % 0 mm
05:10 17.4 °C 16.4 °C 1011.7 hPa Calm     94 % 0 mm
05:15 17.4 °C 16.4 °C 1011.4 hPa Calm     94 % 0 mm
05:20 17.3 °C 16.3 °C 1011.4 hPa Calm     94 % 0 mm
05:25 17.2 °C 16.2 °C 1011.7 hPa Calm     94 % 0 mm
05:30 17.1 °C 16.1 °C 1011.7 hPa Calm     94 % 0 mm
05:35 17.1 °C 16.1 °C 1011.7 hPa Calm     94 % 0 mm
05:40 17 °C 16 °C 1011.7 hPa Calm     94 % 0 mm
05:45 17 °C 16.2 °C 1011.7 hPa Calm     95 % 0 mm
05:50 17.1 °C 16.3 °C 1011.7 hPa Calm     95 % 0 mm
05:55 17.1 °C 16.3 °C 1011.7 hPa Calm     95 % 0 mm
06:00 17 °C 16.2 °C 1011.7 hPa Calm     95 % 0 mm
06:05 17.1 °C 16.3 °C 1011.7 hPa Calm     95 % 0 mm
06:10 17.1 °C 16.3 °C 1011.7 hPa Calm     95 % 0 mm
06:15 17.1 °C 16.3 °C 1011.7 hPa Calm     95 % 0 mm
06:20 17 °C 16.2 °C 1011.7 hPa Calm     95 % 0 mm
06:25 16.9 °C 16.1 °C 1011.7 hPa Calm     95 % 0 mm
06:30 16.9 °C 16.1 °C 1011.7 hPa Calm     95 % 0 mm
06:35 16.8 °C 16 °C 1011.7 hPa Calm     95 % 0 mm
06:40 16.8 °C 16 °C 1011.7 hPa Calm     95 % 0 mm
06:45 16.7 °C 15.9 °C 1011.7 hPa Calm     95 % 0 mm
06:51 16.6 °C 15.8 °C 1011.7 hPa Calm     95 % 0 mm
06:56 16.6 °C 16 °C 1011.7 hPa Calm     96 % 0 mm
07:01 16.6 °C 15.8 °C 1012.1 hPa Calm     95 % 0 mm
07:06 16.5 °C 15.7 °C 1012.1 hPa Calm     95 % 0 mm
07:08 16.4 °C 15.6 °C 1012.1 hPa Calm     95 % 0 mm
07:13 16.7 °C 16.2 °C 1012.1 hPa Calm     97 % 0 mm
07:18 17 °C 16.5 °C 1012.1 hPa Calm     97 % 0 mm
07:24 17.2 °C 16.7 °C 1012.1 hPa Calm     97 % 0 mm
07:29 17.4 °C 16.9 °C 1012.1 hPa Calm     97 % 0 mm
07:34 17.6 °C 17.1 °C 1012.4 hPa Calm     97 % 0 mm
07:39 17.8 °C 17.5 °C 1012.4 hPa Calm     98 % 0 mm
07:44 18.2 °C 17.9 °C 1012.4 hPa Calm     98 % 0 mm
07:49 18.4 °C 17.9 °C 1012.8 hPa Calm     97 % 0 mm
07:54 18.5 °C 18 °C 1012.8 hPa Calm     97 % 0 mm
07:59 18.6 °C 18.1 °C 1012.8 hPa Calm     97 % 0 mm
08:04 18.8 °C 18.3 °C 1012.8 hPa Calm     97 % 0 mm
08:09 19 °C 18.7 °C 1012.8 hPa Calm     98 % 0 mm
08:14 19.2 °C 18.9 °C 1012.8 hPa Calm     98 % 0 mm
08:19 19.4 °C 19.1 °C 1013.1 hPa SSE 3.2 km/h 3.2 km/h 98 % 0 mm
08:24 19.6 °C 19.1 °C 1013.1 hPa SSE 1.6 km/h 3.2 km/h 97 % 0 mm
08:29 19.7 °C 19.2 °C 1013.1 hPa Calm   4.8 km/h 97 % 0 mm
08:34 19.8 °C 19.3 °C 1013.1 hPa SE 1.6 km/h 4.8 km/h 97 % 0 mm
08:39 20 °C 19.5 °C 1013.1 hPa Calm   4.8 km/h 97 % 0 mm
08:44 20.2 °C 19.7 °C 1013.1 hPa ESE 1.6 km/h 4.8 km/h 97 % 0 mm
08:49 20.3 °C 19.8 °C 1013.1 hPa Calm   4.8 km/h 97 % 0 mm
08:54 20.4 °C 19.9 °C 1013.1 hPa Calm   4.8 km/h 97 % 0 mm
08:59 20.7 °C 20.2 °C 1013.4 hPa SSE 3.2 km/h 3.2 km/h 97 % 0 mm
09:04 20.9 °C 20.4 °C 1013.4 hPa SE 3.2 km/h 4.8 km/h 97 % 0 mm
09:09 21.2 °C 20.5 °C 1013.4 hPa SE 4.8 km/h 4.8 km/h 96 % 0 mm
09:14 21.4 °C 20.7 °C 1013.4 hPa SE 6.4 km/h 8 km/h 96 % 0 mm
09:19 21.7 °C 20.9 °C 1013.4 hPa SE 4.8 km/h 8 km/h 95 % 0 mm
09:24 21.8 °C 20.6 °C 1013.4 hPa SE 3.2 km/h 8 km/h 93 % 0 mm
09:29 22 °C 20.8 °C 1013.4 hPa ESE 4.8 km/h 9.7 km/h 93 % 0 mm
09:34 22.2 °C 20.8 °C 1013.4 hPa SE 8 km/h 12.9 km/h 92 % 0 mm
09:39 22.4 °C 20.9 °C 1013.1 hPa East 8 km/h 12.9 km/h 91 % 0 mm
09:44 22.6 °C 20.7 °C 1013.4 hPa SW 6.4 km/h 12.9 km/h 89 % 0 mm
09:50 22.8 °C 20.7 °C 1013.1 hPa South 6.4 km/h 14.5 km/h 88 % 0 mm
09:55 23 °C 20.7 °C 1013.4 hPa ESE 11.3 km/h 14.5 km/h 87 % 0 mm
09:59 23.1 °C 20.8 °C 1013.4 hPa ESE 6.4 km/h 16.1 km/h 87 % 0 mm
10:05 23.3 °C 21 °C 1013.4 hPa SE 3.2 km/h 16.1 km/h 87 % 0 mm
10:10 23.7 °C 21.2 °C 1013.1 hPa SE 8 km/h 16.1 km/h 86 % 0 mm
10:15 23.9 °C 20.8 °C 1013.1 hPa SE 8 km/h 12.9 km/h 83 % 0 mm
10:20 23.9 °C 20.8 °C 1013.1 hPa SSE 4.8 km/h 14.5 km/h 83 % 0 mm
10:25 24.1 °C 21 °C 1013.1 hPa SSW 4.8 km/h 14.5 km/h 83 % 0 mm
10:30 24.3 °C 21 °C 1013.4 hPa SW 3.2 km/h 14.5 km/h 82 % 0 mm
10:35 24.3 °C 20.6 °C 1013.4 hPa SSE 9.7 km/h 16.1 km/h 80 % 0 mm
10:40 24.3 °C 20.6 °C 1013.4 hPa ESE 9.7 km/h 19.3 km/h 80 % 0 mm
10:45 24.6 °C 20.9 °C 1013.4 hPa SSE 6.4 km/h 19.3 km/h 80 % 0 mm
10:50 24.8 °C 20.7 °C 1013.4 hPa SE 14.5 km/h 20.9 km/h 78 % 0 mm
10:55 25 °C 20.7 °C 1013.4 hPa ESE 17.7 km/h 22.5 km/h 77 % 0 mm
11:00 25.2 °C 20.7 °C 1013.1 hPa SSE 11.3 km/h 22.5 km/h 76 % 0 mm
11:01 25.3 °C 20.8 °C 1013.1 hPa SSW 9.7 km/h 22.5 km/h 76 % 0 mm
11:06 25.4 °C 20.6 °C 1013.1 hPa SSE 6.4 km/h 22.5 km/h 75 % 0 mm
11:11 25.6 °C 20.6 °C 1013.1 hPa SE 11.3 km/h 19.3 km/h 74 % 0 mm
11:16 25.6 °C 20.6 °C 1013.1 hPa South 8 km/h 19.3 km/h 74 % 0 mm
11:22 25.7 °C 20.5 °C 1013.1 hPa SE 11.3 km/h 29 km/h 73 % 0 mm
11:27 25.8 °C 20.6 °C 1013.1 hPa South 8 km/h 29 km/h 73 % 0 mm
11:32 25.9 °C 20.9 °C 1013.1 hPa South 3.2 km/h 29 km/h 74 % 0 mm
11:37 26.2 °C 20.5 °C 1013.1 hPa SE 8 km/h 20.9 km/h 71 % 0 mm
11:42 26.3 °C 20.4 °C 1012.8 hPa South 14.5 km/h 16.1 km/h 70 % 0 mm
11:47 26.5 °C 20.3 °C 1012.8 hPa SSE 8 km/h 22.5 km/h 69 % 0 mm
11:52 26.4 °C 20.3 °C 1012.8 hPa SSE 6.4 km/h 22.5 km/h 69 % 0 mm
11:57 26.4 °C 20.3 °C 1012.8 hPa ESE 12.9 km/h 22.5 km/h 69 % 0 mm
12:02 26.6 °C 20.4 °C 1012.8 hPa SE 12.9 km/h 20.9 km/h 69 % 0 mm
12:07 26.7 °C 20.1 °C 1012.8 hPa ESE 17.7 km/h 20.9 km/h 67 % 0 mm
12:12 26.8 °C 20.2 °C 1012.8 hPa SSW 12.9 km/h 20.9 km/h 67 % 0 mm
12:17 27 °C 20.1 °C 1012.4 hPa ESE 19.3 km/h 20.9 km/h 66 % 0 mm
12:22 27.2 °C 20.3 °C 1012.4 hPa ESE 19.3 km/h 24.1 km/h 66 % 0 mm
12:27 27.3 °C 20.1 °C 1012.4 hPa ESE 14.5 km/h 24.1 km/h 65 % 0 mm
12:32 27.2 °C 20 °C 1012.4 hPa SSE 9.7 km/h 25.7 km/h 65 % 0 mm
12:37 27.6 °C 20.2 °C 1012.1 hPa SSE 9.7 km/h 25.7 km/h 64 % 0 mm
12:42 27.7 °C 20.5 °C 1012.1 hPa SW 8 km/h 25.7 km/h 65 % 0 mm
12:47 27.7 °C 19.8 °C 1012.1 hPa East 11.3 km/h 24.1 km/h 62 % 0 mm
12:52 27.8 °C 19.6 °C 1011.7 hPa SE 11.3 km/h 24.1 km/h 61 % 0 mm
12:57 27.8 °C 19.6 °C 1012.1 hPa South 4.8 km/h 24.1 km/h 61 % 0 mm
13:02 27.9 °C 19.7 °C 1012.1 hPa SSW 11.3 km/h 27.4 km/h 61 % 0 mm
13:07 28.1 °C 20.1 °C 1011.7 hPa SW 6.4 km/h 27.4 km/h 62 % 0 mm
13:12 28.1 °C 19.6 °C 1011.7 hPa SSW 8 km/h 27.4 km/h 60 % 0 mm
13:17 28.1 °C 19.3 °C 1011.7 hPa South 14.5 km/h 22.5 km/h 59 % 0 mm
13:22 28.2 °C 19.4 °C 1011.4 hPa South 8 km/h 25.7 km/h 59 % 0 mm
13:27 28.3 °C 19.8 °C 1011.4 hPa SE 6.4 km/h 25.7 km/h 60 % 0 mm
13:32 28.4 °C 19.6 °C 1011.4 hPa ESE 19.3 km/h 25.7 km/h 59 % 0 mm
13:37 28.7 °C 19.6 °C 1011.4 hPa SE 14.5 km/h 22.5 km/h 58 % 0 mm
13:42 28.7 °C 19.6 °C 1011.4 hPa SSE 16.1 km/h 22.5 km/h 58 % 0 mm
13:47 28.5 °C 19.2 °C 1011.1 hPa SSE 8 km/h 22.5 km/h 57 % 0 mm
13:52 28.7 °C 19.9 °C 1011.1 hPa East 9.7 km/h 22.5 km/h 59 % 0 mm
13:57 28.9 °C 19 °C 1011.1 hPa South 14.5 km/h 22.5 km/h 55 % 0 mm
14:02 29 °C 18.7 °C 1011.1 hPa SSE 14.5 km/h 22.5 km/h 54 % 0 mm
14:08 28.8 °C 18.9 °C 1011.1 hPa SE 8 km/h 25.7 km/h 55 % 0 mm
14:13 28.7 °C 19.3 °C 1010.7 hPa SSE 17.7 km/h 25.7 km/h 57 % 0 mm
14:18 28.6 °C 19.2 °C 1010.7 hPa East 8 km/h 25.7 km/h 57 % 0 mm
14:23 28.6 °C 18.7 °C 1010.7 hPa ESE 14.5 km/h 24.1 km/h 55 % 0 mm
14:28 28.8 °C 18.3 °C 1010.7 hPa SE 16.1 km/h 24.1 km/h 53 % 0 mm
14:33 28.9 °C 18.4 °C 1010.4 hPa SSE 16.1 km/h 24.1 km/h 53 % 0 mm
14:38 29.2 °C 17.7 °C 1010.4 hPa SSE 17.7 km/h 24.1 km/h 50 % 0 mm
14:43 29.4 °C 18.5 °C 1010.4 hPa ESE 9.7 km/h 25.7 km/h 52 % 0 mm
14:48 29.6 °C 17.4 °C 1010 hPa SSW 11.3 km/h 25.7 km/h 48 % 0 mm
14:53 29.6 °C 17.1 °C 1010 hPa SE 14.5 km/h 30.6 km/h 47 % 0 mm
14:58 29.7 °C 17.8 °C 1010 hPa ESE 8 km/h 30.6 km/h 49 % 0 mm
15:03 29.9 °C 18 °C 1010 hPa SSE 8 km/h 30.6 km/h 49 % 0 mm
15:08 30 °C 17.8 °C 1010 hPa SE 16.1 km/h 24.1 km/h 48 % 0 mm
15:13 29.8 °C 16.9 °C 1010 hPa SE 11.3 km/h 22.5 km/h 46 % 0 mm
15:18 29.9 °C 17.4 °C 1010 hPa SSE 9.7 km/h 22.5 km/h 47 % 0 mm
15:23 29.8 °C 16.6 °C 1010 hPa SSE 11.3 km/h 27.4 km/h 45 % 0 mm
15:28 29.6 °C 16.8 °C 1010 hPa South 8 km/h 27.4 km/h 46 % 0 mm
15:33 29.7 °C 18.2 °C 1010 hPa SSE 8 km/h 29 km/h 50 % 0 mm
15:38 29.7 °C 18.5 °C 1010 hPa SE 16.1 km/h 29 km/h 51 % 0 mm
15:43 29.4 °C 18.5 °C 1010 hPa SE 8 km/h 29 km/h 52 % 0 mm
15:48 29.3 °C 19 °C 1010 hPa SSE 17.7 km/h 25.7 km/h 54 % 0 mm
15:53 29 °C 19 °C 1010 hPa SSE 16.1 km/h 25.7 km/h 55 % 0 mm
15:58 28.8 °C 18.9 °C 1010 hPa NE 12.9 km/h 25.7 km/h 55 % 0 mm
16:03 28.6 °C 19.2 °C 1010 hPa SSW 14.5 km/h 30.6 km/h 57 % 0 mm
16:08 28.5 °C 18.9 °C 1010 hPa SSE 11.3 km/h 32.2 km/h 56 % 0 mm
16:13 28.3 °C 19.2 °C 1010 hPa ESE 14.5 km/h 32.2 km/h 58 % 0 mm
16:18 28.4 °C 19.3 °C 1010 hPa ESE 17.7 km/h 32.2 km/h 58 % 0 mm
16:23 28.1 °C 19.1 °C 1010 hPa South 8 km/h 40.2 km/h 58 % 0 mm
16:28 28.1 °C 19.3 °C 1010 hPa SSE 22.5 km/h 40.2 km/h 59 % 0 mm
16:33 28.2 °C 19.4 °C 1010 hPa SSE 12.9 km/h 40.2 km/h 59 % 0 mm
16:38 28.2 °C 19.4 °C 1010 hPa SSE 12.9 km/h 29 km/h 59 % 0 mm
16:43 28.1 °C 19.3 °C 1010 hPa East 12.9 km/h 25.7 km/h 59 % 0 mm
16:48 28.1 °C 19.1 °C 1010 hPa SSE 11.3 km/h 27.4 km/h 58 % 0 mm
16:53 28 °C 19 °C 1010 hPa SSE 17.7 km/h 29 km/h 58 % 0 mm
16:58 28.1 °C 18.8 °C 1010 hPa SSE 20.9 km/h 29 km/h 57 % 0 mm
17:03 27.7 °C 19 °C 1010 hPa SE 17.7 km/h 30.6 km/h 59 % 0 mm
17:08 27.4 °C 18.9 °C 1010 hPa SSW 17.7 km/h 30.6 km/h 60 % 0 mm
17:13 27.4 °C 18.9 °C 1009.7 hPa South 11.3 km/h 30.6 km/h 60 % 0 mm
17:18 27.6 °C 18.9 °C 1009.7 hPa South 19.3 km/h 25.7 km/h 59 % 0 mm
17:23 27.4 °C 18.9 °C 1009.7 hPa SE 9.7 km/h 25.7 km/h 60 % 0 mm
17:28 27.4 °C 19.2 °C 1009.4 hPa East 11.3 km/h 25.7 km/h 61 % 0 mm
17:33 27.4 °C 19.2 °C 1009.7 hPa SSE 16.1 km/h 27.4 km/h 61 % 0 mm
17:38 27.4 °C 19.2 °C 1009.7 hPa SE 12.9 km/h 32.2 km/h 61 % 0 mm
17:43 27.1 °C 19.4 °C 1009.4 hPa ESE 8 km/h 32.2 km/h 63 % 0 mm
17:48 27 °C 19.6 °C 1009.4 hPa SE 11.3 km/h 32.2 km/h 64 % 0 mm
17:53 26.9 °C 19.5 °C 1009.4 hPa South 9.7 km/h 27.4 km/h 64 % 0 mm
17:58 26.7 °C 19.3 °C 1009.4 hPa SSE 11.3 km/h 24.1 km/h 64 % 0 mm
18:03 26.6 °C 19.5 °C 1009.4 hPa SE 19.3 km/h 22.5 km/h 65 % 0 mm
18:08 26.5 °C 19.4 °C 1009.4 hPa ESE 17.7 km/h 27.4 km/h 65 % 0 mm
18:13 26.4 °C 19.5 °C 1009.7 hPa SSE 6.4 km/h 29 km/h 66 % 0 mm
18:18 26.3 °C 19.7 °C 1009.7 hPa SE 6.4 km/h 29 km/h 67 % 0 mm
18:23 26.2 °C 19.6 °C 1009.7 hPa ESE 14.5 km/h 29 km/h 67 % 0 mm
18:28 26.2 °C 19.6 °C 1009.7 hPa ESE 16.1 km/h 25.7 km/h 67 % 0 mm
18:33 26.2 °C 19.8 °C 1009.7 hPa East 12.9 km/h 25.7 km/h 68 % 0 mm
18:38 26.2 °C 20.1 °C 1009.7 hPa SE 3.2 km/h 25.7 km/h 69 % 0 mm
18:44 26.1 °C 20.2 °C 1009.7 hPa SE 12.9 km/h 22.5 km/h 70 % 0 mm
18:49 25.8 °C 20.1 °C 1010 hPa ESE 11.3 km/h 25.7 km/h 71 % 0 mm
18:54 25.6 °C 20.2 °C 1010 hPa SSE 8 km/h 27.4 km/h 72 % 0 mm
18:59 25.4 °C 20 °C 1010 hPa SSE 9.7 km/h 27.4 km/h 72 % 0 mm
19:04 25.4 °C 20 °C 1010 hPa SE 11.3 km/h 27.4 km/h 72 % 0 mm
19:09 25.3 °C 19.9 °C 1010 hPa SSE 8 km/h 22.5 km/h 72 % 0 mm
19:14 25.2 °C 19.8 °C 1009.7 hPa SSE 4.8 km/h 24.1 km/h 72 % 0 mm
19:19 25.1 °C 19.9 °C 1009.7 hPa SSE 12.9 km/h 24.1 km/h 73 % 0 mm
19:24 24.9 °C 19.7 °C 1010 hPa South 8 km/h 24.1 km/h 73 % 0 mm
19:29 24.8 °C 19.6 °C 1010 hPa SSE 11.3 km/h 19.3 km/h 73 % 0 mm
19:34 24.8 °C 19.6 °C 1010 hPa SE 8 km/h 27.4 km/h 73 % 0 mm
19:39 24.7 °C 19.8 °C 1010 hPa SE 11.3 km/h 27.4 km/h 74 % 0 mm
19:44 24.7 °C 19.8 °C 1010 hPa SE 8 km/h 27.4 km/h 74 % 0 mm
19:49 24.6 °C 19.9 °C 1010 hPa ESE 16.1 km/h 22.5 km/h 75 % 0 mm
19:54 24.6 °C 19.9 °C 1010 hPa SSE 9.7 km/h 22.5 km/h 75 % 0 mm
19:59 24.4 °C 19.7 °C 1010 hPa SSW 11.3 km/h 22.5 km/h 75 % 0 mm
20:04 24.3 °C 19.8 °C 1010 hPa SE 24.1 km/h 27.4 km/h 76 % 0 mm
20:09 24.3 °C 19.8 °C 1010 hPa SE 17.7 km/h 27.4 km/h 76 % 0 mm
20:14 24.2 °C 19.7 °C 1010 hPa SE 16.1 km/h 27.4 km/h 76 % 0 mm
20:19 24.1 °C 19.8 °C 1010 hPa ESE 14.5 km/h 25.7 km/h 77 % 0 mm
20:24 24.1 °C 19.8 °C 1010.4 hPa SE 6.4 km/h 22.5 km/h 77 % 0 mm
20:29 24 °C 19.9 °C 1010 hPa ESE 6.4 km/h 20.9 km/h 78 % 0 mm
20:34 23.9 °C 19.8 °C 1010.4 hPa SSE 4.8 km/h 17.7 km/h 78 % 0 mm
20:39 23.8 °C 19.9 °C 1010.4 hPa SSE 11.3 km/h 17.7 km/h 79 % 0 mm
20:44 23.8 °C 19.9 °C 1010.4 hPa South 11.3 km/h 17.7 km/h 79 % 0 mm
20:49 23.7 °C 20 °C 1010.4 hPa ESE 12.9 km/h 19.3 km/h 80 % 0 mm
20:54 23.6 °C 19.9 °C 1010 hPa SE 6.4 km/h 25.7 km/h 80 % 0 mm
20:59 23.6 °C 19.9 °C 1010 hPa SSE 11.3 km/h 25.7 km/h 80 % 0 mm
21:04 23.4 °C 19.8 °C 1010 hPa SSE 9.7 km/h 25.7 km/h 80 % 0 mm
21:09 23.4 °C 19.8 °C 1010 hPa SSE 6.4 km/h 22.5 km/h 80 % 0 mm
21:14 23.3 °C 19.9 °C 1010 hPa SE 6.4 km/h 20.9 km/h 81 % 0 mm
21:19 23.3 °C 19.9 °C 1010 hPa SE 8 km/h 20.9 km/h 81 % 0 mm
21:24 23.2 °C 19.8 °C 1010 hPa SSE 4.8 km/h 20.9 km/h 81 % 0 mm
21:29 23.1 °C 19.9 °C 1009.7 hPa SSE 4.8 km/h 19.3 km/h 82 % 0 mm
21:34 23 °C 19.8 °C 1009.7 hPa South 9.7 km/h 19.3 km/h 82 % 0 mm
21:39 22.9 °C 19.7 °C 1009.7 hPa ESE 8 km/h 24.1 km/h 82 % 0 mm
21:44 22.9 °C 19.7 °C 1009.7 hPa SE 11.3 km/h 24.1 km/h 82 % 0 mm
21:49 22.8 °C 19.8 °C 1009.7 hPa SE 6.4 km/h 24.1 km/h 83 % 0 mm
21:54 22.8 °C 19.8 °C 1009.7 hPa SW 8 km/h 19.3 km/h 83 % 0 mm
21:59 22.7 °C 19.9 °C 1010 hPa SSE 6.4 km/h 19.3 km/h 84 % 0 mm
22:04 22.6 °C 19.9 °C 1010 hPa SSE 8 km/h 16.1 km/h 85 % 0 mm
22:09 22.6 °C 19.9 °C 1010.7 hPa South 6.4 km/h 16.1 km/h 85 % 0 mm
22:14 22.6 °C 20.1 °C 1011.1 hPa South 8 km/h 19.3 km/h 86 % 0 mm
22:19 22.6 °C 20.1 °C 1011.1 hPa SSE 6.4 km/h 19.3 km/h 86 % 0 mm
22:24 22.6 °C 20.1 °C 1011.4 hPa SSW 1.6 km/h 19.3 km/h 86 % 0 mm
22:29 22.6 °C 20.1 °C 1011.7 hPa South 3.2 km/h 14.5 km/h 86 % 0 mm
22:35 22.6 °C 20.1 °C 1011.7 hPa SSE 3.2 km/h 14.5 km/h 86 % 0 mm
22:37 22.6 °C 20.1 °C 1011.7 hPa SSW 9.7 km/h 11.3 km/h 86 % 0 mm
22:42 22.6 °C 20.3 °C 1011.7 hPa SE 6.4 km/h 17.7 km/h 87 % 0 mm
22:47 22.6 °C 20.3 °C 1011.7 hPa SSE 3.2 km/h 17.7 km/h 87 % 0 mm
22:52 22.6 °C 20.3 °C 1011.7 hPa SE 3.2 km/h 17.7 km/h 87 % 0 mm
22:57 22.6 °C 20.3 °C 1011.7 hPa South 4.8 km/h 12.9 km/h 87 % 0 mm
23:03 22.6 °C 20.3 °C 1012.1 hPa SE 6.4 km/h 12.9 km/h 87 % 0 mm
23:08 22.6 °C 20.3 °C 1012.1 hPa SSE 4.8 km/h 12.9 km/h 87 % 0 mm
23:13 22.6 °C 20.3 °C 1011.7 hPa South 9.7 km/h 11.3 km/h 87 % 0 mm
23:18 22.6 °C 20.3 °C 1011.7 hPa SSE 8 km/h 11.3 km/h 87 % 0 mm
23:23 22.6 °C 20.3 °C 1012.1 hPa SE 4.8 km/h 11.3 km/h 87 % 0 mm
23:28 22.6 °C 20.3 °C 1011.7 hPa South 3.2 km/h 11.3 km/h 87 % 0 mm
23:33 22.6 °C 20.3 °C 1011.7 hPa SE 4.8 km/h 11.3 km/h 87 % 0 mm
23:38 22.6 °C 20.3 °C 1012.1 hPa SE 4.8 km/h 12.9 km/h 87 % 0 mm
23:43 22.6 °C 20.3 °C 1012.1 hPa SE 1.6 km/h 12.9 km/h 87 % 0 mm
23:48 22.5 °C 20.2 °C 1011.7 hPa SE 1.6 km/h 12.9 km/h 87 % 0 mm
23:53 22.4 °C 20.1 °C 1011.7 hPa SE 6.4 km/h 11.3 km/h 87 % 0 mm
23:58 22.4 °C 20.1 °C 1011.7 hPa SE 4.8 km/h 9.7 km/h 87 % 0 mm
Spring, Texas: Villages of Bridgestone
Compliments of Weather Underground - 3 mb

Script developed by  Jim McMurry - jmcmurry@mwt.net Adapted for the template by  Wim van der Kuil - Leuven-Template.eu

You find our weather info also at:

UK Metoffice

WeatherCloud

Weather Underground

Mid-South Weather Network

AWEKAS

Citizen Weather Observer Program (CWOP)

HAMweather, WeatherForYou, PWS Weather

Equipment we use:

Weather-station
Davis Vantage Vue

Weather-program
Meteohub

Weather-server
Debian 7.9 x86 (Guest)

Provider
DreamHost

Davis Vantage Vue

Meteohub

Debian 7.9 x86 (Guest)

DreamHost